Time;durP1;ratioP1;P1;durP2;ratioP2;P2;SDS_P1;SDS_P2;PMS_P1;PMS_P2;Temp;Humidity;BMP_temperature;BMP_pressure;BME280_temperature;BME280_humidity;BME280_pressure;Samples;Min_cycle;Max_cycle;Signal;HPM_P1;HPM_P2
2023/08/02 00:00:37;;;;;;;5.77;5.27;;;;;;;;;;5071770;28;20620;-77
2023/08/02 00:03:04;;;;;;;4.93;4.63;;;;;;;;;;5071565;28;20684;-77
2023/08/02 00:05:31;;;;;;;5.00;4.60;;;;;;;;;;5072148;28;20606;-78
2023/08/02 00:07:58;;;;;;;4.77;4.47;;;;;;;;;;5071780;28;20204;-78
2023/08/02 00:10:29;;;;;;;5.50;4.53;;;;;;;;;;5070661;28;20208;-77
2023/08/02 00:12:56;;;;;;;5.47;4.97;;;;;;;;;;5071650;28;20659;-77
2023/08/02 00:15:23;;;;;;;4.83;4.43;;;;;;;;;;5070114;28;20224;-77
2023/08/02 00:17:50;;;;;;;5.40;5.00;;;;;;;;;;5053499;28;20560;-78
2023/08/02 00:20:17;;;;;;;5.77;5.33;;;;;;;;;;5054053;28;20196;-78
2023/08/02 00:22:45;;;;;;;9.13;5.13;;;;;;;;;;5070382;28;20201;-77
2023/08/02 00:25:12;;;;;;;5.47;4.97;;;;;;;;;;5054123;28;20193;-78
2023/08/02 00:27:41;;;;;;;6.70;4.77;;;;;;;;;;5070197;28;20215;-78
2023/08/02 00:30:09;;;;;;;5.17;4.77;;;;;;;;;;5071363;28;20201;-78
2023/08/02 00:32:44;;;;;;;4.40;4.10;;;;;;;;;;5069986;28;20207;-78
2023/08/02 00:35:11;;;;;;;4.83;4.53;;;;;;;;;;5071465;28;20227;-77
2023/08/02 00:37:38;;;;;;;5.53;4.97;;;;;;;;;;5072260;28;20201;-78
2023/08/02 00:40:08;;;;;;;5.07;4.67;;;;;;;;;;5054220;28;20547;-77
2023/08/02 00:42:35;;;;;;;4.80;4.47;;;;;;;;;;5071513;28;20201;-77
2023/08/02 00:45:05;;;;;;;5.57;5.07;;;;;;;;;;5053872;28;20236;-77
2023/08/02 00:47:32;;;;;;;5.40;5.00;;;;;;;;;;5053491;28;20255;-77
2023/08/02 00:49:59;;;;;;;5.63;5.23;;;;;;;;;;5070596;28;20196;-77
2023/08/02 00:52:27;;;;;;;5.63;5.07;;;;;;;;;;5082689;28;20219;-77
2023/08/02 00:54:54;;;;;;;5.90;4.53;;;;;;;;;;5095176;28;20227;-77
2023/08/02 00:57:21;;;;;;;5.27;4.90;;;;;;;;;;5095588;28;20570;-77
2023/08/02 00:59:48;;;;;;;5.97;5.37;;;;;;;;;;5095176;28;20196;-77
2023/08/02 01:02:16;;;;;;;5.90;5.40;;;;;;;;;;5095490;28;20558;-77
2023/08/02 01:04:43;;;;;;;33.67;8.27;;;;;;;;;;5076939;28;20196;-77
2023/08/02 01:07:15;;;;;;;11.60;5.23;;;;;;;;;;5077022;28;20219;-77
2023/08/02 01:09:45;;;;;;;5.67;5.17;;;;;;;;;;5060809;28;20208;-77
2023/08/02 01:12:12;;;;;;;5.43;4.93;;;;;;;;;;5095446;28;20196;-77
2023/08/02 01:14:42;;;;;;;5.10;4.70;;;;;;;;;;5076779;28;20234;-77
2023/08/02 01:17:09;;;;;;;5.40;5.00;;;;;;;;;;5094853;28;20200;-77
2023/08/02 01:19:37;;;;;;;6.23;5.60;;;;;;;;;;5094711;28;20679;-77
2023/08/02 01:22:06;;;;;;;4.83;4.43;;;;;;;;;;5095017;28;20265;-77
2023/08/02 01:24:34;;;;;;;8.40;5.00;;;;;;;;;;5094746;28;20193;-77
2023/08/02 01:27:07;;;;;;;6.20;5.03;;;;;;;;;;5094912;28;20207;-77
2023/08/02 01:29:34;;;;;;;5.77;5.27;;;;;;;;;;5076580;28;20200;-77
2023/08/02 01:32:01;;;;;;;5.47;5.07;;;;;;;;;;5076808;28;20218;-77
2023/08/02 01:34:29;;;;;;;5.23;4.73;;;;;;;;;;5076564;28;20274;-77
2023/08/02 01:36:56;;;;;;;15.50;6.00;;;;;;;;;;5076131;28;20215;-78
2023/08/02 01:39:25;;;;;;;10.27;6.27;;;;;;;;;;5094710;28;20196;-78
2023/08/02 01:41:52;;;;;;;8.13;5.23;;;;;;;;;;5094576;28;20193;-77
2023/08/02 01:44:20;;;;;;;5.77;5.27;;;;;;;;;;5094620;28;20274;-77
2023/08/02 01:46:48;;;;;;;5.30;4.90;;;;;;;;;;5060237;28;20569;-77
2023/08/02 01:49:14;;;;;;;5.67;5.17;;;;;;;;;;5059751;28;20196;-77
2023/08/02 01:51:41;;;;;;;6.13;5.53;;;;;;;;;;5093887;28;20196;-77
2023/08/02 01:54:08;;;;;;;5.33;4.93;;;;;;;;;;5093811;28;20686;-77
2023/08/02 01:56:36;;;;;;;7.43;5.23;;;;;;;;;;5094036;28;20196;-77
2023/08/02 01:59:03;;;;;;;6.30;4.90;;;;;;;;;;5093954;28;20576;-77
2023/08/02 02:01:31;;;;;;;6.40;5.13;;;;;;;;;;5092941;28;20200;-77
2023/08/02 02:03:58;;;;;;;5.60;5.20;;;;;;;;;;5059076;28;20208;-77
2023/08/02 02:06:24;;;;;;;5.40;4.73;;;;;;;;;;5094519;28;20204;-77
2023/08/02 02:08:52;;;;;;;6.13;5.10;;;;;;;;;;5076494;28;20199;-77
2023/08/02 02:11:19;;;;;;;5.40;5.00;;;;;;;;;;5075697;28;20188;-77
2023/08/02 02:13:47;;;;;;;5.93;5.43;;;;;;;;;;5094344;28;20196;-77
2023/08/02 02:16:14;;;;;;;5.53;5.03;;;;;;;;;;5075923;28;20220;-78
2023/08/02 02:18:41;;;;;;;6.10;5.47;;;;;;;;;;5093584;28;20203;-78
2023/08/02 02:21:08;;;;;;;5.93;5.43;;;;;;;;;;5075787;28;20211;-77
2023/08/02 02:23:35;;;;;;;5.57;5.07;;;;;;;;;;5058927;28;20261;-77
2023/08/02 02:26:02;;;;;;;5.73;5.33;;;;;;;;;;5093494;28;20207;-77
2023/08/02 02:28:29;;;;;;;6.27;5.77;;;;;;;;;;5093898;28;20200;-77
2023/08/02 02:30:58;;;;;;;5.13;4.63;;;;;;;;;;5093353;28;20207;-77
2023/08/02 02:33:25;;;;;;;5.83;5.33;;;;;;;;;;5093858;28;20200;-77
2023/08/02 02:35:52;;;;;;;5.03;4.63;;;;;;;;;;5058322;28;20220;-78
2023/08/02 02:38:19;;;;;;;5.70;5.20;;;;;;;;;;5075401;28;20192;-77
2023/08/02 02:40:46;;;;;;;7.63;5.20;;;;;;;;;;5094127;28;20192;-77
2023/08/02 02:43:13;;;;;;;6.20;5.60;;;;;;;;;;5058939;28;20211;-78
2023/08/02 02:45:40;;;;;;;5.83;5.33;;;;;;;;;;5058677;28;20204;-78
2023/08/02 02:48:09;;;;;;;6.43;5.57;;;;;;;;;;5093544;28;20254;-78
2023/08/02 02:50:36;;;;;;;5.83;5.33;;;;;;;;;;5092945;28;20207;-77
2023/08/02 02:53:03;;;;;;;5.60;5.13;;;;;;;;;;5074500;28;20220;-78
2023/08/02 02:55:30;;;;;;;6.13;5.50;;;;;;;;;;5092953;28;20728;-77
2023/08/02 02:57:56;;;;;;;5.90;5.40;;;;;;;;;;5075045;28;20617;-77
2023/08/02 03:00:23;;;;;;;5.37;4.90;;;;;;;;;;5058564;28;20277;-77
2023/08/02 03:02:50;;;;;;;6.30;5.00;;;;;;;;;;5092774;28;20258;-77
2023/08/02 03:05:19;;;;;;;5.83;5.33;;;;;;;;;;5075016;28;20211;-77
2023/08/02 03:07:47;;;;;;;6.60;5.30;;;;;;;;;;5075003;28;20650;-77
2023/08/02 03:10:14;;;;;;;5.37;4.87;;;;;;;;;;5092659;28;20207;-77
2023/08/02 03:12:41;;;;;;;5.83;5.30;;;;;;;;;;5058177;28;20207;-77
2023/08/02 03:15:09;;;;;;;6.03;5.53;;;;;;;;;;5074756;28;20220;-77
2023/08/02 03:17:36;;;;;;;6.00;5.50;;;;;;;;;;5092224;28;20203;-77
2023/08/02 03:20:03;;;;;;;5.53;5.13;;;;;;;;;;5092456;28;20666;-76
2023/08/02 03:22:32;;;;;;;5.90;5.50;;;;;;;;;;5092341;28;20302;-77
2023/08/02 03:24:58;;;;;;;6.10;5.60;;;;;;;;;;5092895;28;20634;-77
2023/08/02 03:27:25;;;;;;;6.50;5.90;;;;;;;;;;5074008;28;20204;-77
2023/08/02 03:29:52;;;;;;;7.67;5.90;;;;;;;;;;5092226;28;20196;-79
2023/08/02 03:32:19;;;;;;;8.33;6.20;;;;;;;;;;5074089;28;20203;-78
2023/08/02 03:34:46;;;;;;;5.40;5.00;;;;;;;;;;5074399;28;20212;-79
2023/08/02 03:37:13;;;;;;;5.77;5.37;;;;;;;;;;5057886;28;20204;-79
2023/08/02 03:39:42;;;;;;;6.83;6.33;;;;;;;;;;5092902;28;20203;-78
2023/08/02 03:42:09;;;;;;;8.10;5.63;;;;;;;;;;5092467;28;20203;-79
2023/08/02 03:44:36;;;;;;;7.27;6.67;;;;;;;;;;5057755;28;20200;-78
2023/08/02 03:47:03;;;;;;;6.47;5.97;;;;;;;;;;5074778;28;20196;-79
2023/08/02 03:49:30;;;;;;;6.47;5.97;;;;;;;;;;5091934;28;20204;-78
2023/08/02 03:51:57;;;;;;;7.23;5.60;;;;;;;;;;5091753;28;20227;-79
2023/08/02 03:54:24;;;;;;;7.90;6.00;;;;;;;;;;5092453;28;20192;-79
2023/08/02 03:56:52;;;;;;;8.20;6.83;;;;;;;;;;5112582;28;20202;-78
2023/08/02 03:59:20;;;;;;;7.13;6.40;;;;;;;;;;5112566;28;20214;-78
2023/08/02 04:01:47;;;;;;;7.33;6.73;;;;;;;;;;5112673;28;20211;-79
2023/08/02 04:04:13;;;;;;;6.97;6.37;;;;;;;;;;5112496;28;20217;-79
2023/08/02 04:06:40;;;;;;;6.70;6.20;;;;;;;;;;5112244;28;20666;-79
2023/08/02 04:09:07;;;;;;;7.80;7.00;;;;;;;;;;5108257;28;20192;-79
2023/08/02 04:11:34;;;;;;;6.57;5.97;;;;;;;;;;5091907;28;20219;-79
2023/08/02 04:14:02;;;;;;;6.73;6.13;;;;;;;;;;5097862;28;20195;-79
2023/08/02 04:16:29;;;;;;;7.00;6.50;;;;;;;;;;5111792;28;20231;-79
2023/08/02 04:18:56;;;;;;;10.23;7.17;;;;;;;;;;5112102;28;20622;-79
2023/08/02 04:21:22;;;;;;;6.57;6.07;;;;;;;;;;5112467;28;20244;-79
2023/08/02 04:23:51;;;;;;;7.13;6.43;;;;;;;;;;5110487;28;20202;-79
2023/08/02 04:26:19;;;;;;;7.47;5.90;;;;;;;;;;5116038;28;20665;-79
2023/08/02 04:28:49;;;;;;;6.63;6.03;;;;;;;;;;5116350;28;20253;-79
2023/08/02 04:31:17;;;;;;;17.10;7.23;;;;;;;;;;5116379;28;20623;-79
2023/08/02 04:33:45;;;;;;;7.03;6.43;;;;;;;;;;5081795;28;20196;-79
2023/08/02 04:36:12;;;;;;;6.43;5.93;;;;;;;;;;5115970;28;20230;-79
2023/08/02 04:38:38;;;;;;;7.50;6.80;;;;;;;;;;5116183;28;20203;-79
2023/08/02 04:41:05;;;;;;;7.53;6.93;;;;;;;;;;5114555;28;20199;-79
2023/08/02 04:43:32;;;;;;;7.30;6.63;;;;;;;;;;5116529;28;20222;-78
2023/08/02 04:45:58;;;;;;;6.50;5.90;;;;;;;;;;5103964;28;20203;-79
2023/08/02 04:48:27;;;;;;;8.07;6.00;;;;;;;;;;5110050;28;20203;-79
2023/08/02 04:50:53;;;;;;;7.70;6.93;;;;;;;;;;5100807;28;20200;-79
2023/08/02 04:53:20;;;;;;;7.07;6.50;;;;;;;;;;5111672;28;20620;-79
2023/08/02 04:55:47;;;;;;;6.83;6.33;;;;;;;;;;5113790;28;20836;-79
2023/08/02 04:58:14;;;;;;;6.80;6.10;;;;;;;;;;5110378;28;20199;-79
2023/08/02 05:00:40;;;;;;;10.07;7.07;;;;;;;;;;5103541;28;20199;-79
2023/08/02 05:03:07;;;;;;;7.90;7.10;;;;;;;;;;5114646;28;20738;-77
2023/08/02 05:05:35;;;;;;;7.53;6.87;;;;;;;;;;5109829;28;20192;-77
2023/08/02 05:08:02;;;;;;;7.33;6.70;;;;;;;;;;5094709;28;20200;-79
2023/08/02 05:10:29;;;;;;;6.80;6.20;;;;;;;;;;5093704;28;20204;-80
2023/08/02 05:12:56;;;;;;;6.73;6.10;;;;;;;;;;5094746;28;20211;-79
2023/08/02 05:15:22;;;;;;;7.30;6.67;;;;;;;;;;5109095;28;20701;-80
2023/08/02 05:17:49;;;;;;;7.30;6.60;;;;;;;;;;5099534;28;20207;-80
2023/08/02 05:20:16;;;;;;;7.10;6.47;;;;;;;;;;5094844;28;20595;-80
2023/08/02 05:22:44;;;;;;;6.43;5.97;;;;;;;;;;5094227;28;20596;-80
2023/08/02 05:25:11;;;;;;;7.00;6.47;;;;;;;;;;5103144;28;20570;-80
2023/08/02 05:27:38;;;;;;;6.93;6.43;;;;;;;;;;5110717;28;20275;-80
2023/08/02 05:30:06;;;;;;;6.97;6.30;;;;;;;;;;5094071;28;20667;-80
2023/08/02 05:32:33;;;;;;;7.63;6.30;;;;;;;;;;5112616;28;20684;-80
2023/08/02 05:35:00;;;;;;;7.20;6.70;;;;;;;;;;5114110;28;20662;-80
2023/08/02 05:37:29;;;;;;;7.17;6.57;;;;;;;;;;5112669;28;20188;-79
2023/08/02 05:39:58;;;;;;;6.73;6.10;;;;;;;;;;5113712;28;20287;-80
2023/08/02 05:42:24;;;;;;;7.40;6.70;;;;;;;;;;5114764;28;20207;-80
2023/08/02 05:44:51;;;;;;;8.33;6.33;;;;;;;;;;5095595;28;20200;-80
2023/08/02 05:47:18;;;;;;;6.67;6.07;;;;;;;;;;5093120;28;20679;-80
2023/08/02 05:49:45;;;;;;;6.80;6.20;;;;;;;;;;5111290;28;20202;-80
2023/08/02 05:52:11;;;;;;;8.57;7.20;;;;;;;;;;5113614;28;20231;-80
2023/08/02 05:54:38;;;;;;;7.57;6.87;;;;;;;;;;5113300;28;20198;-80
2023/08/02 05:57:08;;;;;;;8.20;7.40;;;;;;;;;;5113924;28;20215;-80
2023/08/02 05:59:37;;;;;;;7.43;6.33;;;;;;;;;;5113516;28;20195;-80
2023/08/02 06:02:04;;;;;;;7.80;7.03;;;;;;;;;;5113830;28;20195;-80
2023/08/02 06:04:31;;;;;;;8.63;6.83;;;;;;;;;;5113517;28;20570;-80
2023/08/02 06:06:57;;;;;;;7.30;6.70;;;;;;;;;;5113522;28;20253;-80
2023/08/02 06:09:25;;;;;;;8.77;7.20;;;;;;;;;;5113080;28;20202;-80
2023/08/02 06:11:51;;;;;;;8.80;7.20;;;;;;;;;;5114105;28;20187;-80
2023/08/02 06:14:20;;;;;;;7.37;6.63;;;;;;;;;;5112089;28;20207;-79
2023/08/02 06:16:46;;;;;;;8.33;6.63;;;;;;;;;;5097209;28;20226;-80
2023/08/02 06:19:13;;;;;;;7.73;6.57;;;;;;;;;;5101102;28;20204;-78
2023/08/02 06:21:40;;;;;;;8.33;7.53;;;;;;;;;;5112019;28;20192;-78
2023/08/02 06:24:07;;;;;;;7.77;7.03;;;;;;;;;;5113276;28;20633;-78
2023/08/02 06:26:34;;;;;;;7.83;7.23;;;;;;;;;;5112825;28;20195;-78
2023/08/02 06:29:01;;;;;;;8.43;7.23;;;;;;;;;;5113179;28;20195;-78
2023/08/02 06:31:29;;;;;;;8.60;6.97;;;;;;;;;;5100128;28;20188;-78
2023/08/02 06:33:56;;;;;;;7.57;6.97;;;;;;;;;;5112649;28;20202;-78
2023/08/02 06:36:22;;;;;;;8.27;7.47;;;;;;;;;;5108634;28;20756;-78
2023/08/02 06:38:49;;;;;;;8.13;6.27;;;;;;;;;;5103023;28;20195;-78
2023/08/02 06:41:16;;;;;;;7.07;6.47;;;;;;;;;;5111337;28;20572;-78
2023/08/02 06:43:43;;;;;;;8.23;7.50;;;;;;;;;;5098132;28;20203;-78
2023/08/02 06:46:09;;;;;;;8.23;7.40;;;;;;;;;;5100306;28;20203;-79
2023/08/02 06:48:38;;;;;;;7.00;6.50;;;;;;;;;;5092243;28;20207;-79
2023/08/02 06:51:04;;;;;;;9.13;7.03;;;;;;;;;;5093043;28;20200;-78
2023/08/02 06:53:31;;;;;;;7.70;7.00;;;;;;;;;;5096232;28;20230;-78
2023/08/02 06:55:58;;;;;;;7.20;6.50;;;;;;;;;;5112933;28;20227;-78
2023/08/02 06:58:25;;;;;;;9.17;6.90;;;;;;;;;;5096889;28;20212;-78
2023/08/02 07:00:52;;;;;;;7.80;6.43;;;;;;;;;;5112579;28;20202;-78
2023/08/02 07:03:21;;;;;;;6.87;6.17;;;;;;;;;;5111862;28;20192;-78
2023/08/02 07:05:49;;;;;;;7.87;6.97;;;;;;;;;;5112848;28;20210;-78
2023/08/02 07:08:16;;;;;;;7.33;6.60;;;;;;;;;;5111711;28;20192;-78
2023/08/02 07:10:43;;;;;;;7.50;6.73;;;;;;;;;;5111762;28;20226;-78
2023/08/02 07:13:10;;;;;;;7.50;6.87;;;;;;;;;;5112268;28;20581;-78
2023/08/02 07:15:37;;;;;;;7.57;6.80;;;;;;;;;;5111502;28;20211;-78
2023/08/02 07:18:03;;;;;;;7.00;6.30;;;;;;;;;;5112445;28;20195;-78
2023/08/02 07:20:30;;;;;;;9.10;8.30;;;;;;;;;;5091815;28;20197;-78
2023/08/02 07:22:58;;;;;;;8.07;7.27;;;;;;;;;;5102510;28;20187;-79
2023/08/02 07:25:25;;;;;;;9.17;7.20;;;;;;;;;;5111883;28;20191;-78
2023/08/02 07:27:52;;;;;;;6.80;6.20;;;;;;;;;;5111221;28;20211;-78
2023/08/02 07:30:19;;;;;;;9.93;6.97;;;;;;;;;;5111415;28;20666;-79
2023/08/02 07:32:46;;;;;;;7.20;6.40;;;;;;;;;;5111748;28;20195;-78
2023/08/02 07:35:13;;;;;;;7.07;6.47;;;;;;;;;;5111536;28;20199;-78
2023/08/02 07:37:40;;;;;;;7.37;6.70;;;;;;;;;;5111422;28;20215;-79
2023/08/02 07:40:09;;;;;;;9.93;6.67;;;;;;;;;;5111834;28;20618;-79
2023/08/02 07:42:36;;;;;;;8.30;6.87;;;;;;;;;;5111002;28;20696;-79
2023/08/02 07:45:07;;;;;;;13.40;7.10;;;;;;;;;;5111962;28;20202;-79
2023/08/02 07:47:34;;;;;;;7.00;6.40;;;;;;;;;;5111341;28;20189;-79
2023/08/02 07:50:00;;;;;;;9.47;6.83;;;;;;;;;;5111107;28;20195;-80
2023/08/02 07:52:27;;;;;;;8.38;7.57;;;;;;;;;;5111380;28;20242;-79
2023/08/02 07:54:54;;;;;;;10.93;7.90;;;;;;;;;;5111300;28;20196;-79
2023/08/02 07:57:23;;;;;;;7.33;6.63;;;;;;;;;;5111084;28;20226;-79
2023/08/02 07:59:50;;;;;;;7.57;6.88;;;;;;;;;;5110234;28;20226;-79
2023/08/02 08:02:17;;;;;;;7.35;6.75;;;;;;;;;;5110810;28;20195;-79
2023/08/02 08:04:43;;;;;;;7.10;6.43;;;;;;;;;;5111131;28;20192;-78
2023/08/02 08:07:10;;;;;;;9.43;7.03;;;;;;;;;;5110982;28;20246;-79
2023/08/02 08:09:37;;;;;;;7.40;6.70;;;;;;;;;;5111504;28;20192;-78
2023/08/02 08:12:05;;;;;;;7.72;6.95;;;;;;;;;;5110374;28;20202;-78
2023/08/02 08:14:34;;;;;;;6.82;6.22;;;;;;;;;;5110918;28;20646;-78
2023/08/02 08:17:01;;;;;;;7.32;6.65;;;;;;;;;;5111144;28;20215;-78
2023/08/02 08:19:28;;;;;;;8.52;7.75;;;;;;;;;;5110463;28;20201;-78
2023/08/02 08:21:55;;;;;;;7.53;6.60;;;;;;;;;;5110868;28;20199;-78
2023/08/02 08:24:22;;;;;;;7.88;7.18;;;;;;;;;;5110447;28;20198;-78
2023/08/02 08:26:50;;;;;;;11.50;7.55;;;;;;;;;;5110576;28;20274;-78
2023/08/02 08:29:17;;;;;;;10.10;9.07;;;;;;;;;;5108641;28;20206;-78
2023/08/02 08:31:45;;;;;;;8.65;7.85;;;;;;;;;;5111169;28;20194;-78
2023/08/02 08:34:13;;;;;;;8.20;7.40;;;;;;;;;;5110563;28;20198;-79
2023/08/02 08:36:40;;;;;;;7.88;7.28;;;;;;;;;;5110831;28;20218;-78
2023/08/02 08:39:07;;;;;;;8.00;7.35;;;;;;;;;;5110987;28;20577;-78
2023/08/02 08:41:34;;;;;;;9.15;7.35;;;;;;;;;;5111903;28;20572;-78
2023/08/02 08:44:01;;;;;;;7.88;7.22;;;;;;;;;;5111744;28;20199;-78
2023/08/02 08:46:30;;;;;;;9.13;8.43;;;;;;;;;;5106320;28;20196;-78
2023/08/02 08:48:58;;;;;;;8.38;7.55;;;;;;;;;;5099387;28;20195;-78
2023/08/02 08:51:27;;;;;;;8.63;7.93;;;;;;;;;;5092143;28;20192;-78
2023/08/02 08:53:55;;;;;;;14.68;8.23;;;;;;;;;;5103558;28;20231;-78
2023/08/02 08:56:24;;;;;;;8.40;7.80;;;;;;;;;;5096184;28;20635;-78
2023/08/02 08:58:53;;;;;;;9.18;8.48;;;;;;;;;;5097242;28;20317;-78
2023/08/02 09:01:24;;;;;;;8.85;7.45;;;;;;;;;;5097346;28;20199;-78
2023/08/02 09:03:51;;;;;;;8.68;7.88;;;;;;;;;;5096264;28;20197;-78
2023/08/02 09:06:20;;;;;;;7.93;7.10;;;;;;;;;;5102758;28;20208;-78
2023/08/02 09:08:48;;;;;;;9.15;7.70;;;;;;;;;;5105602;28;20598;-78
2023/08/02 09:11:15;;;;;;;9.05;8.35;;;;;;;;;;5102427;28;20228;-78
2023/08/02 09:13:42;;;;;;;9.75;8.68;;;;;;;;;;5108540;28;20245;-78
2023/08/02 09:16:10;;;;;;;8.38;7.55;;;;;;;;;;5105377;28;20196;-78
2023/08/02 09:18:38;;;;;;;7.88;7.28;;;;;;;;;;5105233;28;20679;-78
2023/08/02 09:21:05;;;;;;;8.80;8.05;;;;;;;;;;5093985;28;20685;-78
2023/08/02 09:23:34;;;;;;;8.15;7.47;;;;;;;;;;5094002;28;20192;-78
2023/08/02 09:26:14;;;;;;;8.63;7.82;;;;;;;;;;5103681;28;20199;-78
2023/08/02 09:28:41;;;;;;;7.88;7.20;;;;;;;;;;5095271;28;20196;-78
2023/08/02 09:31:20;;;;;;;7.95;7.25;;;;;;;;;;5102443;28;20203;-78
2023/08/02 09:33:50;;;;;;;8.82;8.13;;;;;;;;;;5094136;28;20193;-78
2023/08/02 09:36:27;;;;;;;9.02;7.57;;;;;;;;;;5108748;28;20249;-78
2023/08/02 09:39:13;;;;;;;8.40;7.60;;;;;;;;;;5114352;28;20207;-78
2023/08/02 09:41:40;;;;;;;8.82;8.02;;;;;;;;;;5113701;28;20248;-78
2023/08/02 09:44:07;;;;;;;8.10;7.43;;;;;;;;;;5114172;28;20200;-78
2023/08/02 09:46:36;;;;;;;7.35;6.68;;;;;;;;;;5108105;28;20268;-78
2023/08/02 09:49:16;;;;;;;8.45;7.47;;;;;;;;;;5104173;28;20203;-78
2023/08/02 09:51:44;;;;;;;8.45;7.63;;;;;;;;;;5106463;28;20231;-79
2023/08/02 09:54:13;;;;;;;9.32;8.07;;;;;;;;;;5093871;28;20200;-78
2023/08/02 09:56:42;;;;;;;8.30;7.50;;;;;;;;;;5113623;28;20223;-78
2023/08/02 09:59:09;;;;;;;9.05;8.25;;;;;;;;;;5101083;28;20242;-78
2023/08/02 10:01:37;;;;;;;8.25;7.65;;;;;;;;;;5114168;28;20192;-78
2023/08/02 10:04:06;;;;;;;7.75;7.05;;;;;;;;;;5113294;28;20200;-78
2023/08/02 10:06:35;;;;;;;8.20;7.60;;;;;;;;;;5113562;28;20196;-78
2023/08/02 10:09:04;;;;;;;9.15;8.02;;;;;;;;;;5098844;28;20292;-79
2023/08/02 10:11:34;;;;;;;8.32;7.72;;;;;;;;;;5103029;28;20197;-78
2023/08/02 10:14:03;;;;;;;8.98;7.85;;;;;;;;;;5097697;28;20245;-78
2023/08/02 10:16:30;;;;;;;8.85;8.15;;;;;;;;;;5101921;28;20589;-78
2023/08/02 10:18:58;;;;;;;8.65;7.90;;;;;;;;;;5093413;28;20226;-78
2023/08/02 10:21:25;;;;;;;9.23;7.90;;;;;;;;;;5092866;28;20685;-78
2023/08/02 10:23:52;;;;;;;8.52;7.75;;;;;;;;;;5104392;28;20583;-78
2023/08/02 10:26:21;;;;;;;8.10;7.50;;;;;;;;;;5105036;28;20207;-78
2023/08/02 10:28:50;;;;;;;8.25;7.38;;;;;;;;;;5112943;28;20551;-79
2023/08/02 10:31:17;;;;;;;7.18;6.57;;;;;;;;;;5099958;28;20200;-79
2023/08/02 10:33:44;;;;;;;6.20;5.80;;;;;;;;;;5105788;28;20197;-78
2023/08/02 10:36:11;;;;;;;7.20;6.60;;;;;;;;;;5105590;28;20196;-78
2023/08/02 10:38:52;;;;;;;8.18;7.55;;;;;;;;;;5112740;28;20616;-78
2023/08/02 10:41:21;;;;;;;11.63;8.15;;;;;;;;;;5112553;28;20195;-78
2023/08/02 10:44:14;;;;;;;6.72;6.22;;;;;;;;;;5113048;28;20196;-78
2023/08/02 10:46:41;;;;;;;8.88;7.22;;;;;;;;;;5112922;28;20203;-78
2023/08/02 10:49:37;;;;;;;8.00;7.40;;;;;;;;;;5112608;28;20202;-78
2023/08/02 10:52:25;;;;;;;7.55;7.00;;;;;;;;;;5112825;28;20255;-78
2023/08/02 10:55:05;;;;;;;8.13;6.88;;;;;;;;;;5112460;28;20244;-78
2023/08/02 10:57:32;;;;;;;8.88;6.85;;;;;;;;;;5112604;28;20223;-79
2023/08/02 11:00:00;;;;;;;7.00;6.47;;;;;;;;;;5103364;28;20196;-79
2023/08/02 11:02:27;;;;;;;8.00;7.30;;;;;;;;;;5091741;28;20200;-79
2023/08/02 11:04:54;;;;;;;7.63;7.03;;;;;;;;;;5101305;28;20191;-79
2023/08/02 11:07:22;;;;;;;7.78;7.10;;;;;;;;;;5109131;28;20200;-78
2023/08/02 11:09:51;;;;;;;9.38;7.45;;;;;;;;;;5102739;28;20200;-78
2023/08/02 11:12:20;;;;;;;8.05;7.45;;;;;;;;;;5098787;28;20196;-79
2023/08/02 11:14:48;;;;;;;7.40;6.90;;;;;;;;;;5102239;28;20192;-78
2023/08/02 11:17:19;;;;;;;10.18;7.32;;;;;;;;;;5109503;28;20215;-79
2023/08/02 11:19:46;;;;;;;8.07;7.25;;;;;;;;;;5101876;28;20204;-78
2023/08/02 11:22:13;;;;;;;7.82;7.13;;;;;;;;;;5096414;28;20708;-78
2023/08/02 11:24:44;;;;;;;7.40;6.80;;;;;;;;;;5099796;28;20196;-78
2023/08/02 11:27:18;;;;;;;7.72;7.13;;;;;;;;;;5110861;28;20204;-78
2023/08/02 11:29:57;;;;;;;7.40;6.82;;;;;;;;;;5098152;28;20199;-78
2023/08/02 11:32:26;;;;;;;7.22;6.72;;;;;;;;;;5099609;28;20237;-78
2023/08/02 11:34:53;;;;;;;7.10;6.50;;;;;;;;;;5095991;28;20204;-80
2023/08/02 11:37:20;;;;;;;8.27;7.45;;;;;;;;;;5102671;28;20589;-78
2023/08/02 11:39:53;;;;;;;7.78;7.05;;;;;;;;;;5107636;28;20282;-78
2023/08/02 11:42:20;;;;;;;7.18;6.68;;;;;;;;;;5111542;28;20195;-78
2023/08/02 11:44:47;;;;;;;8.18;7.47;;;;;;;;;;5111574;28;20195;-78
2023/08/02 11:47:14;;;;;;;8.30;7.28;;;;;;;;;;5100800;28;20218;-78
2023/08/02 11:49:52;;;;;;;7.72;6.85;;;;;;;;;;5092006;28;20200;-78
2023/08/02 11:52:26;;;;;;;7.43;6.82;;;;;;;;;;5103311;28;20648;-78
2023/08/02 11:54:53;;;;;;;7.63;6.95;;;;;;;;;;5101494;28;20202;-78
2023/08/02 11:57:21;;;;;;;7.57;6.75;;;;;;;;;;5091682;28;20223;-78
2023/08/02 11:59:48;;;;;;;6.93;6.40;;;;;;;;;;5104990;28;20195;-78
2023/08/02 12:02:26;;;;;;;7.22;6.63;;;;;;;;;;5103855;28;20203;-78
2023/08/02 12:04:55;;;;;;;8.40;7.03;;;;;;;;;;5090865;28;20278;-78
2023/08/02 12:07:25;;;;;;;7.18;6.68;;;;;;;;;;5107366;28;20207;-78
2023/08/02 12:09:52;;;;;;;6.97;6.47;;;;;;;;;;5101815;28;20199;-78
2023/08/02 12:12:20;;;;;;;7.70;7.00;;;;;;;;;;5105322;28;20199;-78
2023/08/02 12:14:46;;;;;;;7.40;6.40;;;;;;;;;;5101767;28;20191;-78
2023/08/02 12:17:20;;;;;;;6.90;6.40;;;;;;;;;;5095350;28;20192;-78
2023/08/02 12:19:47;;;;;;;6.68;6.18;;;;;;;;;;5111325;28;20196;-78
2023/08/02 12:22:16;;;;;;;6.53;6.03;;;;;;;;;;5109894;28;20191;-78
2023/08/02 12:24:43;;;;;;;6.53;6.10;;;;;;;;;;5098873;28;20203;-78
2023/08/02 12:27:15;;;;;;;7.45;6.85;;;;;;;;;;5109625;28;20195;-78
2023/08/02 12:29:42;;;;;;;7.03;6.53;;;;;;;;;;5097922;28;20279;-79
2023/08/02 12:32:09;;;;;;;6.95;6.45;;;;;;;;;;5090567;28;20221;-78
2023/08/02 12:34:37;;;;;;;7.07;6.47;;;;;;;;;;5090639;28;20204;-78
2023/08/02 12:37:05;;;;;;;6.80;6.30;;;;;;;;;;5111121;28;20630;-78
2023/08/02 12:39:33;;;;;;;6.97;6.38;;;;;;;;;;5097079;28;20234;-78
2023/08/02 12:42:00;;;;;;;7.20;6.43;;;;;;;;;;5098251;28;20191;-78
2023/08/02 12:44:26;;;;;;;7.20;6.70;;;;;;;;;;5110898;28;20709;-78
2023/08/02 12:46:53;;;;;;;6.93;6.32;;;;;;;;;;5105363;28;20189;-79
2023/08/02 12:49:20;;;;;;;7.55;6.95;;;;;;;;;;5094262;28;20556;-78
2023/08/02 12:51:47;;;;;;;7.53;6.93;;;;;;;;;;5100159;28;20218;-78
2023/08/02 12:54:13;;;;;;;6.82;6.32;;;;;;;;;;5100871;28;20196;-78
2023/08/02 12:56:42;;;;;;;8.02;7.22;;;;;;;;;;5115213;28;20199;-77
2023/08/02 12:59:08;;;;;;;8.85;6.90;;;;;;;;;;5099587;28;20234;-78
2023/08/02 13:01:35;;;;;;;7.40;6.78;;;;;;;;;;5105684;28;20200;-78
2023/08/02 13:04:02;;;;;;;6.85;6.15;;;;;;;;;;5110494;28;20670;-78
2023/08/02 13:06:29;;;;;;;7.15;6.35;;;;;;;;;;5105680;28;20200;-78
2023/08/02 13:08:55;;;;;;;6.72;6.22;;;;;;;;;;5109449;28;20612;-77
2023/08/02 13:11:22;;;;;;;6.90;6.28;;;;;;;;;;5105142;28;20196;-78
2023/08/02 13:13:50;;;;;;;6.63;6.13;;;;;;;;;;5094195;28;20196;-78
2023/08/02 13:16:17;;;;;;;6.40;5.90;;;;;;;;;;5104478;28;20577;-78
2023/08/02 13:18:44;;;;;;;6.63;6.13;;;;;;;;;;5114272;28;20215;-78
2023/08/02 13:21:11;;;;;;;6.68;6.13;;;;;;;;;;5114255;28;20650;-79
2023/08/02 13:23:38;;;;;;;7.38;6.18;;;;;;;;;;5097059;28;20200;-78
2023/08/02 13:26:04;;;;;;;7.38;6.78;;;;;;;;;;5102324;28;20200;-78
2023/08/02 13:28:31;;;;;;;6.75;6.25;;;;;;;;;;5096981;28;20200;-78
2023/08/02 13:30:59;;;;;;;7.03;6.53;;;;;;;;;;5105205;28;20670;-78
2023/08/02 13:33:27;;;;;;;7.40;6.70;;;;;;;;;;5099529;28;20199;-78
2023/08/02 13:35:54;;;;;;;7.78;7.18;;;;;;;;;;5102222;28;20577;-78
2023/08/02 13:38:21;;;;;;;6.65;6.15;;;;;;;;;;5093426;28;20212;-78
2023/08/02 13:40:50;;;;;;;7.03;6.53;;;;;;;;;;5106996;28;20202;-78
2023/08/02 13:43:16;;;;;;;7.70;7.00;;;;;;;;;;5107777;28;20650;-78
2023/08/02 13:45:44;;;;;;;7.03;6.32;;;;;;;;;;5107094;28;20191;-78
2023/08/02 13:48:12;;;;;;;7.93;6.80;;;;;;;;;;5098609;28;20643;-78
2023/08/02 13:50:41;;;;;;;8.63;6.45;;;;;;;;;;5101556;28;20203;-78
2023/08/02 13:53:08;;;;;;;5.90;5.50;;;;;;;;;;5109600;28;20239;-78
2023/08/02 13:55:35;;;;;;;7.47;6.97;;;;;;;;;;5106436;28;20203;-78
2023/08/02 13:58:03;;;;;;;7.35;6.85;;;;;;;;;;5106014;28;20223;-78
2023/08/02 14:00:30;;;;;;;6.78;6.25;;;;;;;;;;5105858;28;20578;-78
2023/08/02 14:02:57;;;;;;;6.88;6.35;;;;;;;;;;5106904;28;20203;-78
2023/08/02 14:05:25;;;;;;;7.00;6.50;;;;;;;;;;5106741;28;20206;-78
2023/08/02 14:07:52;;;;;;;8.98;6.63;;;;;;;;;;5093470;28;20226;-78
2023/08/02 14:10:20;;;;;;;7.30;6.70;;;;;;;;;;5094031;28;20208;-78
2023/08/02 14:12:47;;;;;;;6.82;6.22;;;;;;;;;;5114389;28;20199;-77
2023/08/02 14:15:13;;;;;;;9.20;8.25;;;;;;;;;;5114995;28;20207;-78
2023/08/02 14:17:40;;;;;;;6.78;6.28;;;;;;;;;;5113959;28;20210;-78
2023/08/02 14:20:09;;;;;;;6.63;6.10;;;;;;;;;;5112555;28;20200;-78
2023/08/02 14:22:37;;;;;;;7.82;7.22;;;;;;;;;;5106465;28;20203;-78
2023/08/02 14:25:04;;;;;;;7.85;7.25;;;;;;;;;;5106653;28;20192;-79
2023/08/02 14:27:31;;;;;;;7.32;6.72;;;;;;;;;;5112995;28;20203;-78
2023/08/02 14:29:58;;;;;;;6.97;6.38;;;;;;;;;;5107105;28;20196;-77
2023/08/02 14:32:27;;;;;;;7.57;6.95;;;;;;;;;;5093858;28;20560;-77
2023/08/02 14:34:54;;;;;;;7.05;6.55;;;;;;;;;;5103334;28;20206;-76
2023/08/02 14:37:21;;;;;;;7.47;6.82;;;;;;;;;;5114034;28;20252;-77
2023/08/02 14:39:49;;;;;;;7.38;6.80;;;;;;;;;;5112149;28;20219;-77
2023/08/02 14:42:17;;;;;;;6.90;6.40;;;;;;;;;;5113187;28;20202;-76
2023/08/02 14:44:44;;;;;;;6.78;6.20;;;;;;;;;;5104430;28;20201;-78
2023/08/02 14:47:10;;;;;;;7.40;6.70;;;;;;;;;;5093289;28;20204;-78